CST,Max TemperatureF,Mean TemperatureF,Min TemperatureF,Max Dew PointF,MeanDew PointF,Min DewpointF,Max Humidity, Mean Humidity, Min Humidity, Max Sea Level PressureIn, Mean Sea Level PressureIn, Min Sea Level PressureIn, Max VisibilityMiles, Mean VisibilityMiles, Min VisibilityMiles, Max Wind SpeedMPH, Mean Wind SpeedMPH, Max Gust SpeedMPH,PrecipitationIn, CloudCover, Events, WindDirDegrees
2012-11-1,58,46,34,42,38,33,97,76,53,30.00,29.98,29.95,10,10,10,13,3,,0.00,1,,358
2012-11-2,54,45,37,32,31,29,78,61,42,30.09,30.01,29.94,10,10,10,15,8,,0.00,1,,69
2012-11-3,54,42,29,34,31,27,93,73,45,30.23,30.19,30.10,10,10,10,8,3,,0.00,1,,330
2012-11-4,59,47,35,46,38,34,98,73,47,30.20,30.11,29.99,10,10,6,17,4,,0.09,4,Rain,189
2012-11-5,47,44,41,46,42,39,100,97,93,30.23,30.11,30.01,10,4,1,17,9,23,0.02,8,Rain,323
2012-11-6,57,48,37,40,34,30,94,67,36,30.08,30.02,29.97,10,10,10,25,11,37,0.01,2,,290
2012-11-7,53,42,30,34,31,28,89,71,43,30.25,30.13,30.07,10,10,10,10,7,,0.00,0,,322
2012-11-8,66,51,36,43,36,30,87,66,35,30.04,29.94,29.85,10,10,10,14,8,,0.00,0,,131
2012-11-9,66,52,39,56,46,36,89,75,56,29.87,29.77,29.63,10,10,10,13,8,,0.00,1,,94
2012-11-10,76,64,51,58,55,50,100,76,52,29.64,29.56,29.46,10,10,6,29,15,44,0.25,3,Rain-Thunderstorm,190
2012-11-11,50,38,25,48,27,13,94,81,49,30.21,29.85,29.63,10,10,10,25,16,32,0.01,6,Rain,314
2012-11-12,41,30,19,18,16,14,87,61,35,30.42,30.32,30.22,10,10,10,22,9,28,0.00,0,,277
2012-11-13,52,34,16,32,25,14,92,68,35,30.42,30.36,30.29,10,10,10,9,3,,0.00,1,,143
2012-11-14,58,42,25,30,27,23,94,59,26,30.35,30.27,30.21,10,10,10,13,6,,0.00,0,,152
2012-11-15,59,48,38,34,32,30,78,58,33,30.45,30.31,30.20,10,10,10,12,6,,0.00,2,,357
2012-11-16,55,38,22,34,29,21,93,70,43,30.49,30.42,30.33,10,10,10,10,4,,0.00,0,,139
2012-11-17,61,49,37,36,34,31,86,60,35,30.32,30.25,30.17,10,10,5,21,11,26,0.00,2,,144
2012-11-18,60,52,43,41,34,29,60,50,34,30.17,30.10,30.04,10,10,10,17,12,24,0.00,3,Rain,140
2012-11-19,60,48,37,42,38,33,84,66,47,30.12,30.05,30.02,10,10,10,12,8,,0.00,0,,241
2012-11-20,62,48,33,39,34,31,90,73,37,30.25,30.18,30.14,10,10,10,9,5,,0.00,0,,242
2012-11-21,72,52,32,46,40,30,90,64,35,30.13,30.00,29.81,10,10,10,20,8,28,0.00,0,,145
2012-11-22,61,50,40,44,38,30,96,66,44,30.23,29.93,29.73,10,10,10,24,11,32,0.00,0,,279
2012-11-23,41,29,17,28,18,9,72,56,35,30.53,30.39,30.24,10,10,10,32,20,44,0.00,3,,308
2012-11-24,44,30,17,26,18,10,82,60,36,30.43,30.12,29.89,10,10,10,18,5,,0.00,2,,132
2012-11-25,43,37,31,28,26,25,78,65,52,30.17,30.02,29.89,10,10,10,10,6,,0.00,4,,344
2012-11-26,36,24,11,27,21,8,88,73,51,30.50,30.40,30.17,10,10,6,16,9,20,0.00,4,Snow,5
2012-11-27,43,26,10,24,15,9,92,76,46,30.49,30.38,30.21,10,10,10,13,4,20,0.00,0,Snow,180
2012-11-28,47,32,16,28,22,13,92,70,41,30.42,30.30,30.12,10,10,10,13,4,,0.00,0,,181
2012-11-29,54,39,24,37,30,22,95,78,52,30.12,30.01,29.95,10,10,10,7,3,,0.00,0,,154
2012-11-30,45,36,26,32,28,25,100,85,60,30.12,30.03,29.95,10,8,2,10,2,,0.00,0,,318